PWSweather.com
Personal Weather Stations
Station Observations
KWIPARKF
Flambeau River State Forest, Park Falls, WI 54552

Flambeau River State ForestPark Falls, WI 54552

Lat: 45.81943, Lon: -90.61676

Elevation: 1476

Station Type: Davis Vantage Pro2 Plus

www.flambeauforestweather.com

High Low Average
Temperature 46.0°F7.8°C 16.1°F-8.8°C 34.2°F1.2°C
Dew Point 26.0°F-3.3°C 12.5°F-10.8°C 20.9°F-6.2°C
Winds Calm Calm Calm Calm Calm SWCalm SW
Wind Gusts 1.2 mph1.9 kmh -- --
Humidity 91% 36% 61%
Pressure 30.09 in1019.0 mb 30.02 in1016.6 mb -
Precipitation 0.00 in0.0 mm - -
Hour Temp Dew Point Humidity Winds Wind Gusts Pressure Precip Precip Rate Daily Precip Total
12:00 AM 27.5°F-2.5°C 21.2°F-6.0°C 77% Calm Calm -- 30.07 in1018.3 mb - 0.00 in0.0 mm 0.00 in0.0 mm
12:10 AM 27.0°F-2.8°C 20.7°F-6.3°C 77% Calm Calm -- 30.07 in1018.3 mb - 0.00 in0.0 mm 0.00 in0.0 mm
12:20 AM 26.5°F-3.1°C 20.6°F-6.3°C 78% Calm Calm -- 30.07 in1018.3 mb - 0.00 in0.0 mm 0.00 in0.0 mm
12:30 AM 26.1°F-3.3°C 20.2°F-6.6°C 78% Calm Calm -- 30.08 in1018.6 mb - 0.00 in0.0 mm 0.00 in0.0 mm
12:40 AM 25.6°F-3.6°C 20.0°F-6.7°C 79% Calm Calm -- 30.08 in1018.6 mb - 0.00 in0.0 mm 0.00 in0.0 mm
12:50 AM 25.0°F-3.9°C 19.7°F-6.8°C 80% Calm Calm -- 30.08 in1018.6 mb - 0.00 in0.0 mm 0.00 in0.0 mm
01:00 AM 25.0°F-3.9°C 19.1°F-7.2°C 78% Calm Calm -- 30.08 in1018.6 mb - 0.00 in0.0 mm 0.00 in0.0 mm
01:10 AM 25.4°F-3.7°C 19.2°F-7.1°C 77% Calm Calm -- 30.08 in1018.6 mb - 0.00 in0.0 mm 0.00 in0.0 mm
01:20 AM 25.8°F-3.4°C 19.0°F-7.2°C 75% Calm Calm -- 30.08 in1018.6 mb - 0.00 in0.0 mm 0.00 in0.0 mm
01:30 AM 26.0°F-3.3°C 18.5°F-7.5°C 73% Calm Calm -- 30.08 in1018.6 mb - 0.00 in0.0 mm 0.00 in0.0 mm
01:40 AM 26.3°F-3.2°C 18.8°F-7.3°C 73% Calm Calm -- 30.07 in1018.3 mb - 0.00 in0.0 mm 0.00 in0.0 mm
01:50 AM 26.5°F-3.1°C 19.3°F-7.1°C 74% Calm Calm -- 30.07 in1018.3 mb - 0.00 in0.0 mm 0.00 in0.0 mm
02:00 AM 26.5°F-3.1°C 19.3°F-7.1°C 74% Calm Calm -- 30.07 in1018.3 mb - 0.00 in0.0 mm 0.00 in0.0 mm
02:10 AM 26.2°F-3.2°C 19.4°F-7.0°C 75% Calm Calm -- 30.07 in1018.3 mb - 0.00 in0.0 mm 0.00 in0.0 mm
02:20 AM 25.7°F-3.5°C 18.9°F-7.3°C 75% Calm Calm -- 30.07 in1018.3 mb - 0.00 in0.0 mm 0.00 in0.0 mm
02:30 AM 25.2°F-3.8°C 18.7°F-7.4°C 76% Calm Calm -- 30.06 in1017.9 mb - 0.00 in0.0 mm 0.00 in0.0 mm
02:40 AM 24.6°F-4.1°C 18.7°F-7.4°C 78% Calm Calm -- 30.06 in1017.9 mb - 0.00 in0.0 mm 0.00 in0.0 mm
02:50 AM 24.1°F-4.4°C 18.2°F-7.7°C 78% Calm Calm -- 30.06 in1017.9 mb - 0.00 in0.0 mm 0.00 in0.0 mm
03:00 AM 23.7°F-4.6°C 18.2°F-7.7°C 79% Calm Calm -- 30.06 in1017.9 mb - 0.00 in0.0 mm 0.00 in0.0 mm
03:10 AM 23.4°F-4.8°C 17.8°F-7.9°C 79% Calm Calm -- 30.06 in1017.9 mb - 0.00 in0.0 mm 0.00 in0.0 mm
03:20 AM 23.0°F-5.0°C 17.7°F-7.9°C 80% Calm Calm -- 30.05 in1017.6 mb - 0.00 in0.0 mm 0.00 in0.0 mm
03:30 AM 22.6°F-5.2°C 17.4°F-8.1°C 80% Calm Calm -- 30.06 in1017.9 mb - 0.00 in0.0 mm 0.00 in0.0 mm
03:40 AM 22.1°F-5.5°C 16.9°F-8.4°C 80% Calm Calm -- 30.05 in1017.6 mb - 0.00 in0.0 mm 0.00 in0.0 mm
03:50 AM 21.6°F-5.8°C 16.4°F-8.7°C 80% Calm Calm -- 30.06 in1017.9 mb - 0.00 in0.0 mm 0.00 in0.0 mm
04:00 AM 21.2°F-6.0°C 16.3°F-8.7°C 81% Calm Calm -- 30.05 in1017.6 mb - 0.00 in0.0 mm 0.00 in0.0 mm
04:10 AM 20.8°F-6.2°C 15.9°F-8.9°C 81% Calm Calm -- 30.06 in1017.9 mb - 0.00 in0.0 mm 0.00 in0.0 mm
04:20 AM 20.3°F-6.5°C 15.4°F-9.2°C 81% Calm Calm -- 30.07 in1018.3 mb - 0.00 in0.0 mm 0.00 in0.0 mm
04:30 AM 19.8°F-6.8°C 15.0°F-9.4°C 81% Calm Calm -- 30.07 in1018.3 mb - 0.00 in0.0 mm 0.00 in0.0 mm
04:40 AM 19.5°F-6.9°C 14.9°F-9.5°C 82% Calm Calm -- 30.07 in1018.3 mb - 0.00 in0.0 mm 0.00 in0.0 mm
04:50 AM 19.2°F-7.1°C 14.3°F-9.8°C 81% Calm Calm -- 30.07 in1018.3 mb - 0.00 in0.0 mm 0.00 in0.0 mm
05:00 AM 18.9°F-7.3°C 14.3°F-9.8°C 82% Calm Calm -- 30.07 in1018.3 mb - 0.00 in0.0 mm 0.00 in0.0 mm
05:10 AM 18.6°F-7.4°C 14.0°F-10.0°C 82% Calm Calm -- 30.08 in1018.6 mb - 0.00 in0.0 mm 0.00 in0.0 mm
05:20 AM 18.2°F-7.7°C 13.6°F-10.2°C 82% Calm Calm -- 30.08 in1018.6 mb - 0.00 in0.0 mm 0.00 in0.0 mm
05:30 AM 18.0°F-7.8°C 13.7°F-10.2°C 83% Calm Calm -- 30.08 in1018.6 mb - 0.00 in0.0 mm 0.00 in0.0 mm
05:40 AM 17.6°F-8.0°C 13.3°F-10.4°C 83% Calm Calm -- 30.09 in1019.0 mb - 0.00 in0.0 mm 0.00 in0.0 mm
05:50 AM 17.3°F-8.2°C 13.3°F-10.4°C 84% Calm Calm -- 30.08 in1018.6 mb - 0.00 in0.0 mm 0.00 in0.0 mm
06:00 AM 17.0°F-8.3°C 13.0°F-10.6°C 84% Calm Calm -- 30.09 in1019.0 mb - 0.00 in0.0 mm 0.00 in0.0 mm
06:10 AM 16.8°F-8.4°C 12.8°F-10.7°C 84% Calm Calm -- 30.09 in1019.0 mb - 0.00 in0.0 mm 0.00 in0.0 mm
06:20 AM 16.5°F-8.6°C 12.5°F-10.8°C 84% Calm Calm -- 30.09 in1019.0 mb - 0.00 in0.0 mm 0.00 in0.0 mm
06:30 AM 16.3°F-8.7°C 12.6°F-10.8°C 85% Calm Calm -- 30.08 in1018.6 mb - 0.00 in0.0 mm 0.00 in0.0 mm
06:40 AM 16.2°F-8.8°C 12.5°F-10.8°C 85% Calm Calm -- 30.09 in1019.0 mb - 0.00 in0.0 mm 0.00 in0.0 mm
06:50 AM 16.1°F-8.8°C 12.7°F-10.7°C 86% Calm Calm -- 30.09 in1019.0 mb - 0.00 in0.0 mm 0.00 in0.0 mm
07:00 AM 16.1°F-8.8°C 12.9°F-10.6°C 87% Calm Calm -- 30.09 in1019.0 mb - 0.00 in0.0 mm 0.00 in0.0 mm
07:10 AM 16.2°F-8.8°C 13.3°F-10.4°C 88% Calm Calm -- 30.09 in1019.0 mb - 0.00 in0.0 mm 0.00 in0.0 mm
07:20 AM 16.5°F-8.6°C 13.8°F-10.1°C 89% Calm Calm -- 30.09 in1019.0 mb - 0.00 in0.0 mm 0.00 in0.0 mm
07:30 AM 17.0°F-8.3°C 14.6°F-9.7°C 90% Calm Calm -- 30.09 in1019.0 mb - 0.00 in0.0 mm 0.00 in0.0 mm
07:40 AM 17.7°F-7.9°C 15.6°F-9.1°C 91% Calm Calm -- 30.09 in1019.0 mb - 0.00 in0.0 mm 0.00 in0.0 mm
07:50 AM 19.1°F-7.2°C 16.9°F-8.4°C 91% Calm Calm -- 30.09 in1019.0 mb - 0.00 in0.0 mm 0.00 in0.0 mm
08:00 AM 22.2°F-5.4°C 18.9°F-7.3°C 87% Calm Calm -- 30.09 in1019.0 mb - 0.00 in0.0 mm 0.00 in0.0 mm
08:10 AM 29.2°F-1.6°C 20.3°F-6.5°C 69% Calm Calm -- 30.09 in1019.0 mb - 0.00 in0.0 mm 0.00 in0.0 mm
08:20 AM 31.7°F-0.2°C 19.8°F-6.8°C 61% Calm Calm -- 30.09 in1019.0 mb - 0.00 in0.0 mm 0.00 in0.0 mm
08:30 AM 33.7°F0.9°C 19.7°F-6.8°C 56% Calm Calm -- 30.08 in1018.6 mb - 0.00 in0.0 mm 0.00 in0.0 mm
08:40 AM 35.8°F2.1°C 19.9°F-6.7°C 52% Calm Calm -- 30.08 in1018.6 mb - 0.00 in0.0 mm 0.00 in0.0 mm
08:50 AM 37.4°F3.0°C 20.5°F-6.4°C 50% Calm Calm -- 30.08 in1018.6 mb - 0.00 in0.0 mm 0.00 in0.0 mm
09:00 AM 39.2°F4.0°C 20.6°F-6.3°C 47% Calm Calm -- 30.08 in1018.6 mb - 0.00 in0.0 mm 0.00 in0.0 mm
09:10 AM 39.9°F4.4°C 21.8°F-5.7°C 48% Calm Calm -- 30.08 in1018.6 mb - 0.00 in0.0 mm 0.00 in0.0 mm
09:20 AM 40.8°F4.9°C 22.1°F-5.5°C 47% Calm Calm -- 30.08 in1018.6 mb - 0.00 in0.0 mm 0.00 in0.0 mm
09:30 AM 41.1°F5.1°C 20.8°F-6.2°C 44% Calm Calm -- 30.08 in1018.6 mb - 0.00 in0.0 mm 0.00 in0.0 mm
09:40 AM 41.5°F5.3°C 21.7°F-5.7°C 45% Calm Calm -- 30.08 in1018.6 mb - 0.00 in0.0 mm 0.00 in0.0 mm
09:50 AM 41.3°F5.2°C 22.1°F-5.5°C 46% Calm Calm -- 30.07 in1018.3 mb - 0.00 in0.0 mm 0.00 in0.0 mm
10:00 AM 41.9°F5.5°C 21.0°F-6.1°C 43% Calm Calm -- 30.08 in1018.6 mb - 0.00 in0.0 mm 0.00 in0.0 mm
10:10 AM 41.9°F5.5°C 19.9°F-6.7°C 41% Calm Calm -- 30.07 in1018.3 mb - 0.00 in0.0 mm 0.00 in0.0 mm
10:20 AM 42.4°F5.8°C 22.0°F-5.6°C 44% Calm Calm -- 30.07 in1018.3 mb - 0.00 in0.0 mm 0.00 in0.0 mm
10:30 AM 42.6°F5.9°C 21.6°F-5.8°C 43% Calm Calm -- 30.07 in1018.3 mb - 0.00 in0.0 mm 0.00 in0.0 mm
10:40 AM 42.9°F6.1°C 21.4°F-5.9°C 42% Calm Calm -- 30.07 in1018.3 mb - 0.00 in0.0 mm 0.00 in0.0 mm
10:50 AM 44.2°F6.8°C 21.4°F-5.9°C 40% Calm Calm -- 30.07 in1018.3 mb - 0.00 in0.0 mm 0.00 in0.0 mm
11:00 AM 44.8°F7.1°C 21.9°F-5.6°C 40% Calm Calm -- 30.07 in1018.3 mb - 0.00 in0.0 mm 0.00 in0.0 mm
11:10 AM 45.2°F7.3°C 21.0°F-6.1°C 38% Calm Calm -- 30.07 in1018.3 mb - 0.00 in0.0 mm 0.00 in0.0 mm
11:20 AM 45.2°F7.3°C 21.1°F-6.1°C 38% Calm Calm -- 30.06 in1017.9 mb - 0.00 in0.0 mm 0.00 in0.0 mm
11:30 AM 45.1°F7.3°C 21.6°F-5.8°C 39% Calm Calm -- 30.06 in1017.9 mb - 0.00 in0.0 mm 0.00 in0.0 mm
11:40 AM 45.5°F7.5°C 22.5°F-5.3°C 40% Calm Calm -- 30.06 in1017.9 mb - 0.00 in0.0 mm 0.00 in0.0 mm
11:50 AM 45.5°F7.5°C 20.7°F-6.3°C 37% Calm Calm 1.2 mph1.9 kmh 30.06 in1017.9 mb - 0.00 in0.0 mm 0.00 in0.0 mm
12:00 PM 45.3°F7.4°C 21.2°F-6.0°C 38% Calm Calm -- 30.06 in1017.9 mb - 0.00 in0.0 mm 0.00 in0.0 mm
12:10 PM 45.1°F7.3°C 22.2°F-5.4°C 40% Calm Calm -- 30.05 in1017.6 mb - 0.00 in0.0 mm 0.00 in0.0 mm
12:20 PM 45.1°F7.3°C 21.6°F-5.8°C 39% Calm Calm -- 30.05 in1017.6 mb - 0.00 in0.0 mm 0.00 in0.0 mm
12:30 PM 44.8°F7.1°C 21.3°F-5.9°C 39% Calm Calm -- 30.05 in1017.6 mb - 0.00 in0.0 mm 0.00 in0.0 mm
12:40 PM 45.2°F7.3°C 21.1°F-6.1°C 38% Calm Calm -- 30.05 in1017.6 mb - 0.00 in0.0 mm 0.00 in0.0 mm
12:50 PM 45.4°F7.4°C 21.9°F-5.6°C 39% Calm Calm -- 30.05 in1017.6 mb - 0.00 in0.0 mm 0.00 in0.0 mm
01:00 PM 45.5°F7.5°C 23.1°F-4.9°C 41% Calm Calm -- 30.05 in1017.6 mb - 0.00 in0.0 mm 0.00 in0.0 mm
01:10 PM 45.7°F7.6°C 23.9°F-4.5°C 42% Calm Calm -- 30.04 in1017.3 mb - 0.00 in0.0 mm 0.00 in0.0 mm
01:20 PM 45.7°F7.6°C 22.1°F-5.5°C 39% Calm Calm -- 30.04 in1017.3 mb - 0.00 in0.0 mm 0.00 in0.0 mm
01:30 PM 45.6°F7.6°C 23.2°F-4.9°C 41% Calm Calm -- 30.04 in1017.3 mb - 0.00 in0.0 mm 0.00 in0.0 mm
01:40 PM 45.6°F7.6°C 23.2°F-4.9°C 41% Calm Calm -- 30.04 in1017.3 mb - 0.00 in0.0 mm 0.00 in0.0 mm
01:50 PM 45.7°F7.6°C 22.7°F-5.2°C 40% Calm Calm -- 30.03 in1016.9 mb - 0.00 in0.0 mm 0.00 in0.0 mm
02:00 PM 45.1°F7.3°C 21.6°F-5.8°C 39% Calm Calm -- 30.03 in1016.9 mb - 0.00 in0.0 mm 0.00 in0.0 mm
02:10 PM 45.2°F7.3°C 22.2°F-5.4°C 40% Calm Calm -- 30.03 in1016.9 mb - 0.00 in0.0 mm 0.00 in0.0 mm
02:20 PM 45.1°F7.3°C 22.7°F-5.2°C 41% Calm Calm -- 30.03 in1016.9 mb - 0.00 in0.0 mm 0.00 in0.0 mm
02:30 PM 45.1°F7.3°C 22.2°F-5.4°C 40% Calm Calm -- 30.03 in1016.9 mb - 0.00 in0.0 mm 0.00 in0.0 mm
02:40 PM 45.5°F7.5°C 21.9°F-5.6°C 39% Calm Calm -- 30.03 in1016.9 mb - 0.00 in0.0 mm 0.00 in0.0 mm
02:50 PM 45.5°F7.5°C 20.7°F-6.3°C 37% Calm Calm -- 30.03 in1016.9 mb - 0.00 in0.0 mm 0.00 in0.0 mm
03:00 PM 45.5°F7.5°C 22.5°F-5.3°C 40% Calm Calm -- 30.02 in1016.6 mb - 0.00 in0.0 mm 0.00 in0.0 mm
03:10 PM 46.0°F7.8°C 21.7°F-5.7°C 38% Calm Calm -- 30.02 in1016.6 mb - 0.00 in0.0 mm 0.00 in0.0 mm
03:20 PM 46.0°F7.8°C 20.5°F-6.4°C 36% Calm Calm -- 30.02 in1016.6 mb - 0.00 in0.0 mm 0.00 in0.0 mm
03:30 PM 46.0°F7.8°C 20.5°F-6.4°C 36% Calm Calm -- 30.03 in1016.9 mb - 0.00 in0.0 mm 0.00 in0.0 mm
03:40 PM 46.0°F7.8°C 21.1°F-6.1°C 37% Calm Calm -- 30.02 in1016.6 mb - 0.00 in0.0 mm 0.00 in0.0 mm
03:50 PM 45.7°F7.6°C 23.9°F-4.5°C 42% Calm Calm -- 30.02 in1016.6 mb - 0.00 in0.0 mm 0.00 in0.0 mm
04:00 PM 45.9°F7.7°C 21.1°F-6.1°C 37% Calm Calm -- 30.02 in1016.6 mb - 0.00 in0.0 mm 0.00 in0.0 mm
04:10 PM 45.8°F7.7°C 21.6°F-5.8°C 38% Calm Calm -- 30.02 in1016.6 mb - 0.00 in0.0 mm 0.00 in0.0 mm
04:20 PM 45.1°F7.3°C 23.9°F-4.5°C 43% Calm Calm -- 30.02 in1016.6 mb - 0.00 in0.0 mm 0.00 in0.0 mm
04:30 PM 44.8°F7.1°C 24.7°F-4.1°C 45% Calm Calm -- 30.02 in1016.6 mb - 0.00 in0.0 mm 0.00 in0.0 mm
04:40 PM 44.2°F6.8°C 24.2°F-4.3°C 45% Calm Calm -- 30.02 in1016.6 mb - 0.00 in0.0 mm 0.00 in0.0 mm
04:50 PM 43.6°F6.4°C 24.6°F-4.1°C 47% Calm Calm -- 30.02 in1016.6 mb - 0.00 in0.0 mm 0.00 in0.0 mm
05:00 PM 43.5°F6.4°C 23.0°F-5.0°C 44% Calm Calm -- 30.02 in1016.6 mb - 0.00 in0.0 mm 0.00 in0.0 mm
05:10 PM 43.2°F6.2°C 22.7°F-5.2°C 44% Calm Calm -- 30.02 in1016.6 mb - 0.00 in0.0 mm 0.00 in0.0 mm
05:20 PM 42.5°F5.8°C 24.2°F-4.3°C 48% Calm Calm -- 30.03 in1016.9 mb - 0.00 in0.0 mm 0.00 in0.0 mm
05:30 PM 42.0°F5.6°C 24.2°F-4.3°C 49% Calm Calm -- 30.03 in1016.9 mb - 0.00 in0.0 mm 0.00 in0.0 mm
05:40 PM 41.5°F5.3°C 22.8°F-5.1°C 47% Calm Calm -- 30.03 in1016.9 mb - 0.00 in0.0 mm 0.00 in0.0 mm
05:50 PM 41.1°F5.1°C 23.4°F-4.8°C 49% Calm Calm -- 30.03 in1016.9 mb - 0.00 in0.0 mm 0.00 in0.0 mm
06:00 PM 40.6°F4.8°C 23.4°F-4.8°C 50% Calm Calm -- 30.03 in1016.9 mb - 0.00 in0.0 mm 0.00 in0.0 mm
06:10 PM 40.5°F4.7°C 23.8°F-4.6°C 51% Calm Calm -- 30.03 in1016.9 mb - 0.00 in0.0 mm 0.00 in0.0 mm
06:20 PM 40.5°F4.7°C 23.8°F-4.6°C 51% Calm Calm -- 30.03 in1016.9 mb - 0.00 in0.0 mm 0.00 in0.0 mm
06:30 PM 40.3°F4.6°C 24.1°F-4.4°C 52% Calm Calm -- 30.03 in1016.9 mb - 0.00 in0.0 mm 0.00 in0.0 mm
06:40 PM 40.0°F4.4°C 25.5°F-3.6°C 56% Calm Calm -- 30.03 in1016.9 mb - 0.00 in0.0 mm 0.00 in0.0 mm
06:50 PM 39.6°F4.2°C 24.8°F-4.0°C 55% Calm Calm -- 30.03 in1016.9 mb - 0.00 in0.0 mm 0.00 in0.0 mm
07:00 PM 39.3°F4.1°C 25.3°F-3.7°C 57% Calm Calm -- 30.03 in1016.9 mb - 0.00 in0.0 mm 0.00 in0.0 mm
07:10 PM 39.0°F3.9°C 25.0°F-3.9°C 57% Calm Calm -- 30.04 in1017.3 mb - 0.00 in0.0 mm 0.00 in0.0 mm
07:20 PM 38.7°F3.7°C 25.2°F-3.8°C 58% Calm Calm -- 30.04 in1017.3 mb - 0.00 in0.0 mm 0.00 in0.0 mm
07:30 PM 38.4°F3.6°C 25.3°F-3.7°C 59% Calm Calm -- 30.04 in1017.3 mb - 0.00 in0.0 mm 0.00 in0.0 mm
07:40 PM 38.1°F3.4°C 25.0°F-3.9°C 59% Calm Calm -- 30.05 in1017.6 mb - 0.00 in0.0 mm 0.00 in0.0 mm
07:50 PM 37.8°F3.2°C 25.1°F-3.8°C 60% Calm Calm -- 30.05 in1017.6 mb - 0.00 in0.0 mm 0.00 in0.0 mm
08:00 PM 37.5°F3.1°C 25.7°F-3.5°C 62% Calm Calm -- 30.05 in1017.6 mb - 0.00 in0.0 mm 0.00 in0.0 mm
08:10 PM 37.4°F3.0°C 25.1°F-3.8°C 61% Calm Calm -- 30.05 in1017.6 mb - 0.00 in0.0 mm 0.00 in0.0 mm
08:20 PM 37.2°F2.9°C 25.8°F-3.4°C 63% Calm Calm -- 30.05 in1017.6 mb - 0.00 in0.0 mm 0.00 in0.0 mm
08:30 PM 37.0°F2.8°C 25.6°F-3.6°C 63% Calm Calm -- 30.05 in1017.6 mb - 0.00 in0.0 mm 0.00 in0.0 mm
08:40 PM 36.8°F2.7°C 25.8°F-3.4°C 64% Calm Calm -- 30.05 in1017.6 mb - 0.00 in0.0 mm 0.00 in0.0 mm
08:50 PM 36.6°F2.6°C 25.6°F-3.6°C 64% Calm Calm -- 30.05 in1017.6 mb - 0.00 in0.0 mm 0.00 in0.0 mm
09:00 PM 36.4°F2.4°C 25.7°F-3.5°C 65% Calm Calm 1.2 mph1.9 kmh 30.05 in1017.6 mb - 0.00 in0.0 mm 0.00 in0.0 mm
09:10 PM 36.1°F2.3°C 24.7°F-4.1°C 63% Calm Calm -- 30.06 in1017.9 mb - 0.00 in0.0 mm 0.00 in0.0 mm
09:20 PM 36.0°F2.2°C 25.0°F-3.9°C 64% Calm Calm -- 30.06 in1017.9 mb - 0.00 in0.0 mm 0.00 in0.0 mm
09:30 PM 35.8°F2.1°C 25.2°F-3.8°C 65% Calm Calm -- 30.06 in1017.9 mb - 0.00 in0.0 mm 0.00 in0.0 mm
09:40 PM 35.6°F2.0°C 25.0°F-3.9°C 65% Calm Calm -- 30.06 in1017.9 mb - 0.00 in0.0 mm 0.00 in0.0 mm
09:50 PM 35.5°F1.9°C 25.6°F-3.6°C 67% Calm Calm -- 30.06 in1017.9 mb - 0.00 in0.0 mm 0.00 in0.0 mm
10:00 PM 35.3°F1.8°C 25.4°F-3.7°C 67% Calm Calm -- 30.06 in1017.9 mb - 0.00 in0.0 mm 0.00 in0.0 mm
10:10 PM 35.1°F1.7°C 25.2°F-3.8°C 67% Calm Calm -- 30.06 in1017.9 mb - 0.00 in0.0 mm 0.00 in0.0 mm
10:20 PM 34.9°F1.6°C 25.4°F-3.7°C 68% Calm Calm -- 30.06 in1017.9 mb - 0.00 in0.0 mm 0.00 in0.0 mm
10:30 PM 34.8°F1.6°C 25.6°F-3.6°C 69% Calm Calm -- 30.06 in1017.9 mb - 0.00 in0.0 mm 0.00 in0.0 mm
10:40 PM 34.6°F1.4°C 25.8°F-3.4°C 70% Calm Calm -- 30.06 in1017.9 mb - 0.00 in0.0 mm 0.00 in0.0 mm
10:50 PM 34.4°F1.3°C 25.3°F-3.7°C 69% Calm Calm -- 30.06 in1017.9 mb - 0.00 in0.0 mm 0.00 in0.0 mm
11:00 PM 34.2°F1.2°C 25.8°F-3.4°C 71% Calm Calm -- 30.05 in1017.6 mb - 0.00 in0.0 mm 0.00 in0.0 mm
11:10 PM 34.0°F1.1°C 25.9°F-3.4°C 72% Calm Calm -- 30.06 in1017.9 mb - 0.00 in0.0 mm 0.00 in0.0 mm
11:20 PM 33.8°F1.0°C 25.0°F-3.9°C 70% Calm Calm -- 30.06 in1017.9 mb - 0.00 in0.0 mm 0.00 in0.0 mm
11:30 PM 33.6°F0.9°C 25.6°F-3.6°C 72% Calm Calm -- 30.06 in1017.9 mb - 0.00 in0.0 mm 0.00 in0.0 mm
11:40 PM 33.4°F0.8°C 26.0°F-3.3°C 74% Calm Calm -- 30.06 in1017.9 mb - 0.00 in0.0 mm 0.00 in0.0 mm
11:50 PM 33.2°F0.7°C 25.5°F-3.6°C 73% Calm Calm -- 30.06 in1017.9 mb - 0.00 in0.0 mm 0.00 in0.0 mm